Time;durP1;ratioP1;P1;durP2;ratioP2;P2;SDS_P1;SDS_P2;PMS_P1;PMS_P2;Temp;Humidity;BMP_temperature;BMP_pressure;BME280_temperature;BME280_humidity;BME280_pressure;Samples;Min_cycle;Max_cycle;Signal;HPM_P1;HPM_P2
2023/04/21 00:00:50;;;;;;;;;;;9.40;99.90;;;;;;5058043;28;19958;-48
2023/04/21 00:03:18;;;;;;;;;;;9.40;99.90;;;;;;5044442;28;20340;-44
2023/04/21 00:05:45;;;;;;;;;;;9.40;99.90;;;;;;5032199;28;19937;-45
2023/04/21 00:08:12;;;;;;;;;;;9.40;99.90;;;;;;5047812;28;19964;-46
2023/04/21 00:10:38;;;;;;;;;;;9.40;99.90;;;;;;5051832;28;20034;-42
2023/04/21 00:13:05;;;;;;;;;;;9.40;99.90;;;;;;5050574;28;19947;-47
2023/04/21 00:15:31;;;;;;;;;;;9.40;99.90;;;;;;5050821;28;19981;-45
2023/04/21 00:17:59;;;;;;;;;;;9.50;99.90;;;;;;5050962;28;20407;-45
2023/04/21 00:20:26;;;;;;;;;;;9.50;99.90;;;;;;5053821;28;19956;-47
2023/04/21 00:22:53;;;;;;;;;;;9.50;99.90;;;;;;5069468;28;19976;-46
2023/04/21 00:25:20;;;;;;;;;;;9.50;99.90;;;;;;5064196;28;19982;-47
2023/04/21 00:27:46;;;;;;;;;;;9.50;99.90;;;;;;5063467;28;19933;-45
2023/04/21 00:30:13;;;;;;;;;;;9.50;99.90;;;;;;5055398;28;20346;-46
2023/04/21 00:32:39;;;;;;;;;;;9.50;99.90;;;;;;5061079;28;19978;-46
2023/04/21 00:35:08;;;;;;;;;;;9.50;99.90;;;;;;5060327;28;20488;-43
2023/04/21 00:37:35;;;;;;;;;;;9.50;99.90;;;;;;5054947;28;19944;-46
2023/04/21 00:40:03;;;;;;;;;;;9.50;99.90;;;;;;5053598;28;19943;-45
2023/04/21 00:42:29;;;;;;;;;;;9.50;99.90;;;;;;5052925;28;20351;-42
2023/04/21 00:44:56;;;;;;;;;;;9.50;99.90;;;;;;5053877;28;19988;-46
2023/04/21 00:47:22;;;;;;;;;;;9.50;99.90;;;;;;5054635;28;20020;-42
2023/04/21 00:49:49;;;;;;;;;;;9.50;99.90;;;;;;5055629;28;20433;-47
2023/04/21 00:52:17;;;;;;;;;;;9.40;99.90;;;;;;5053033;28;19942;-44
2023/04/21 00:54:44;;;;;;;;;;;9.40;99.90;;;;;;5055296;28;20026;-48
2023/04/21 00:57:11;;;;;;;;;;;9.40;99.90;;;;;;5054085;28;20366;-43
2023/04/21 00:59:37;;;;;;;;;;;9.40;99.90;;;;;;5054367;28;20021;-49
2023/04/21 01:02:04;;;;;;;;;;;9.40;99.90;;;;;;5069235;28;19937;-43
2023/04/21 01:04:35;;;;;;;;;;;9.40;99.90;;;;;;5066761;28;19938;-47
2023/04/21 01:07:02;;;;;;;;;;;9.30;99.90;;;;;;5067092;28;19940;-44
2023/04/21 01:09:30;;;;;;;;;;;9.40;99.90;;;;;;5052217;28;19998;-45
2023/04/21 01:12:01;;;;;;;;;;;9.30;99.90;;;;;;5065125;28;19951;-45
2023/04/21 01:14:27;;;;;;;;;;;9.30;99.90;;;;;;5049713;28;20365;-45
2023/04/21 01:16:54;;;;;;;;;;;9.20;99.90;;;;;;5053689;28;19937;-44
2023/04/21 01:19:21;;;;;;;;;;;9.30;99.90;;;;;;5052074;28;20345;-45
2023/04/21 01:21:52;;;;;;;;;;;9.20;99.90;;;;;;5058440;28;20463;-45
2023/04/21 01:24:19;;;;;;;;;;;9.20;99.90;;;;;;5053952;28;20019;-45
2023/04/21 01:26:48;;;;;;;;;;;9.20;99.90;;;;;;5047238;28;20036;-44
2023/04/21 01:29:14;;;;;;;;;;;9.20;99.90;;;;;;5063794;28;20010;-49
2023/04/21 01:31:41;;;;;;;;;;;9.20;99.90;;;;;;5052245;28;19935;-41
2023/04/21 01:34:08;;;;;;;;;;;9.20;99.90;;;;;;5053095;28;19955;-44
2023/04/21 01:36:35;;;;;;;;;;;9.10;99.90;;;;;;5054128;28;19937;-43
2023/04/21 01:39:04;;;;;;;;;;;9.20;99.90;;;;;;5043411;28;19973;-42
2023/04/21 01:41:30;;;;;;;;;;;9.20;99.90;;;;;;5043708;28;19944;-43
2023/04/21 01:43:57;;;;;;;;;;;9.10;99.90;;;;;;5053367;28;19984;-44
2023/04/21 01:46:23;;;;;;;;;;;9.20;99.90;;;;;;5042371;28;20000;-45
2023/04/21 01:48:50;;;;;;;;;;;9.20;99.90;;;;;;5053174;28;20339;-45
2023/04/21 01:51:17;;;;;;;;;;;9.20;99.90;;;;;;5057365;28;19980;-42
2023/04/21 01:53:43;;;;;;;;;;;9.10;99.90;;;;;;5050327;28;19952;-49
2023/04/21 01:56:14;;;;;;;;;;;9.10;99.90;;;;;;5069365;28;19924;-46
2023/04/21 01:58:41;;;;;;;;;;;9.10;99.90;;;;;;5051994;28;19939;-45
2023/04/21 02:01:07;;;;;;;;;;;9.10;99.90;;;;;;5050962;28;19931;-45
2023/04/21 02:03:34;;;;;;;;;;;9.10;99.90;;;;;;5052029;28;19935;-42
2023/04/21 02:06:01;;;;;;;;;;;9.00;99.90;;;;;;5053163;28;19941;-45
2023/04/21 02:08:27;;;;;;;;;;;9.00;99.90;;;;;;5050674;28;19931;-47
2023/04/21 02:10:54;;;;;;;;;;;9.00;99.90;;;;;;5056812;28;19941;-44
2023/04/21 02:13:22;;;;;;;;;;;9.00;99.90;;;;;;5051011;28;19944;-45
2023/04/21 02:15:49;;;;;;;;;;;9.00;99.90;;;;;;5045583;28;20045;-44
2023/04/21 02:18:15;;;;;;;;;;;9.00;99.90;;;;;;5052654;28;20419;-44
2023/04/21 02:20:42;;;;;;;;;;;8.90;99.90;;;;;;5051110;28;19933;-42
2023/04/21 02:23:09;;;;;;;;;;;8.90;99.90;;;;;;5055518;28;20368;-46
2023/04/21 02:25:35;;;;;;;;;;;8.90;99.90;;;;;;5051951;28;19995;-47
2023/04/21 02:28:02;;;;;;;;;;;8.90;99.90;;;;;;5053247;28;19942;-47
2023/04/21 02:30:30;;;;;;;;;;;8.90;99.90;;;;;;5051302;28;19976;-44
2023/04/21 02:32:57;;;;;;;;;;;8.90;99.90;;;;;;5065657;28;19931;-47
2023/04/21 02:35:23;;;;;;;;;;;8.90;99.90;;;;;;5051446;28;19962;-45
2023/04/21 02:37:50;;;;;;;;;;;8.90;99.90;;;;;;5053117;28;20433;-47
2023/04/21 02:40:17;;;;;;;;;;;8.80;99.90;;;;;;5065029;28;20378;-47
2023/04/21 02:42:43;;;;;;;;;;;8.80;99.90;;;;;;5059488;28;19941;-45
2023/04/21 02:45:10;;;;;;;;;;;8.80;99.90;;;;;;5061400;28;19935;-44
2023/04/21 02:47:38;;;;;;;;;;;8.80;99.90;;;;;;5070161;28;20375;-45
2023/04/21 02:50:06;;;;;;;;;;;8.80;99.90;;;;;;5052316;28;19939;-44
2023/04/21 02:52:35;;;;;;;;;;;8.80;99.90;;;;;;5052285;28;19937;-45
2023/04/21 02:55:02;;;;;;;;;;;8.90;99.90;;;;;;5058919;28;19952;-48
2023/04/21 02:57:28;;;;;;;;;;;8.80;99.90;;;;;;5050929;28;19941;-47
2023/04/21 02:59:55;;;;;;;;;;;8.80;99.90;;;;;;5052303;28;20410;-48
2023/04/21 03:02:22;;;;;;;;;;;8.70;99.90;;;;;;5062744;28;20020;-47
2023/04/21 03:04:50;;;;;;;;;;;8.70;99.90;;;;;;5055878;28;20383;-45
2023/04/21 03:07:17;;;;;;;;;;;8.70;99.90;;;;;;5060576;28;19936;-48
2023/04/21 03:09:44;;;;;;;;;;;8.70;99.90;;;;;;5065589;28;19940;-45
2023/04/21 03:12:10;;;;;;;;;;;8.70;99.90;;;;;;5067407;28;19959;-50
2023/04/21 03:14:37;;;;;;;;;;;8.80;99.90;;;;;;5051466;28;19997;-48
2023/04/21 03:17:04;;;;;;;;;;;8.80;99.90;;;;;;5051111;28;20285;-44
2023/04/21 03:19:30;;;;;;;;;;;8.80;99.90;;;;;;5052512;28;20354;-45
2023/04/21 03:21:58;;;;;;;;;;;8.80;99.90;;;;;;5050376;28;19979;-48
2023/04/21 03:24:25;;;;;;;;;;;8.80;99.90;;;;;;5051313;28;19941;-49
2023/04/21 03:26:52;;;;;;;;;;;8.80;99.90;;;;;;5052494;28;19938;-44
2023/04/21 03:29:18;;;;;;;;;;;8.70;99.90;;;;;;5049921;28;19972;-43
2023/04/21 03:31:45;;;;;;;;;;;8.80;99.90;;;;;;5055573;28;19994;-44
2023/04/21 03:34:12;;;;;;;;;;;8.70;99.90;;;;;;5040110;28;19953;-45
2023/04/21 03:36:38;;;;;;;;;;;8.80;99.90;;;;;;5051234;28;20390;-46
2023/04/21 03:39:06;;;;;;;;;;;8.80;99.90;;;;;;5056749;28;19984;-49
2023/04/21 03:41:33;;;;;;;;;;;8.80;99.90;;;;;;5057498;28;19940;-46
2023/04/21 03:43:59;;;;;;;;;;;8.80;99.90;;;;;;5049452;28;20383;-47
2023/04/21 03:46:26;;;;;;;;;;;8.80;99.90;;;;;;5051685;28;20006;-44
2023/04/21 03:48:53;;;;;;;;;;;8.80;99.90;;;;;;5051599;28;19955;-47
2023/04/21 03:51:19;;;;;;;;;;;8.80;99.90;;;;;;5040964;28;19933;-47
2023/04/21 03:53:46;;;;;;;;;;;8.80;99.90;;;;;;5042256;28;19931;-44
2023/04/21 03:56:14;;;;;;;;;;;8.80;99.90;;;;;;5071766;28;19956;-44
2023/04/21 03:58:41;;;;;;;;;;;8.80;99.90;;;;;;5058567;28;19948;-47
2023/04/21 04:01:08;;;;;;;;;;;8.90;99.90;;;;;;5061341;28;19935;-45
2023/04/21 04:03:34;;;;;;;;;;;8.90;99.90;;;;;;5069933;28;20342;-47
2023/04/21 04:06:02;;;;;;;;;;;8.80;99.90;;;;;;5054266;28;20351;-47
2023/04/21 04:08:29;;;;;;;;;;;8.80;99.90;;;;;;5070285;28;19940;-43
2023/04/21 04:10:56;;;;;;;;;;;8.80;99.90;;;;;;5061899;28;19937;-48
2023/04/21 04:13:25;;;;;;;;;;;8.80;99.90;;;;;;5063001;28;19982;-47
2023/04/21 04:15:52;;;;;;;;;;;8.80;99.90;;;;;;5053693;28;20414;-46
2023/04/21 04:18:18;;;;;;;;;;;8.80;99.90;;;;;;5054855;28;20010;-41
2023/04/21 04:20:45;;;;;;;;;;;8.80;99.90;;;;;;5055178;28;19946;-48
2023/04/21 04:23:12;;;;;;;;;;;8.80;99.90;;;;;;5055011;28;19941;-46
2023/04/21 04:25:38;;;;;;;;;;;8.80;99.90;;;;;;5056041;28;19937;-47
2023/04/21 04:28:06;;;;;;;;;;;8.80;99.90;;;;;;5057653;28;20356;-43
2023/04/21 04:30:34;;;;;;;;;;;8.80;99.90;;;;;;5060465;28;19924;-49
2023/04/21 04:33:00;;;;;;;;;;;8.80;99.90;;;;;;5037348;28;19984;-49
2023/04/21 04:35:27;;;;;;;;;;;8.70;99.90;;;;;;5057909;28;19949;-46
2023/04/21 04:37:55;;;;;;;;;;;8.70;99.90;;;;;;5055087;28;19970;-46
2023/04/21 04:40:22;;;;;;;;;;;8.70;99.90;;;;;;5050310;28;20034;-45
2023/04/21 04:42:50;;;;;;;;;;;8.70;99.90;;;;;;5044217;28;19987;-46
2023/04/21 04:45:21;;;;;;;;;;;8.60;99.90;;;;;;5054431;28;19989;-44
2023/04/21 04:47:49;;;;;;;;;;;8.60;99.90;;;;;;5053329;28;20390;-45
2023/04/21 04:50:16;;;;;;;;;;;8.60;99.90;;;;;;5055463;28;20276;-48
2023/04/21 04:52:45;;;;;;;;;;;8.50;99.90;;;;;;5065432;28;19954;-43
2023/04/21 04:55:12;;;;;;;;;;;8.50;99.90;;;;;;5058336;28;20049;-48
2023/04/21 04:57:39;;;;;;;;;;;8.50;99.90;;;;;;5055349;28;19921;-46
2023/04/21 05:00:10;;;;;;;;;;;8.50;99.90;;;;;;5044649;28;19931;-44
2023/04/21 05:02:37;;;;;;;;;;;8.50;99.90;;;;;;5060678;28;20109;-45
2023/04/21 05:05:05;;;;;;;;;;;8.50;99.90;;;;;;5049906;28;20374;-45
2023/04/21 05:07:32;;;;;;;;;;;8.50;99.90;;;;;;5054039;28;20384;-46
2023/04/21 05:09:58;;;;;;;;;;;8.60;99.90;;;;;;5045042;28;19933;-45
2023/04/21 05:12:25;;;;;;;;;;;8.50;99.90;;;;;;5054501;28;20497;-47
2023/04/21 05:14:52;;;;;;;;;;;8.50;99.90;;;;;;5052957;28;20012;-48
2023/04/21 05:17:18;;;;;;;;;;;8.60;99.90;;;;;;5052568;28;20011;-43
2023/04/21 05:19:45;;;;;;;;;;;8.60;99.90;;;;;;5048627;28;19940;-45
2023/04/21 05:22:13;;;;;;;;;;;8.60;99.90;;;;;;5054370;28;20342;-42
2023/04/21 05:24:41;;;;;;;;;;;8.60;99.90;;;;;;5058467;28;20443;-45
2023/04/21 05:27:07;;;;;;;;;;;8.60;99.90;;;;;;5049985;28;20022;-42
2023/04/21 05:29:34;;;;;;;;;;;8.70;99.90;;;;;;5043458;28;19948;-45
2023/04/21 05:32:00;;;;;;;;;;;8.60;99.90;;;;;;5050158;28;20395;-49
2023/04/21 05:34:27;;;;;;;;;;;8.70;99.90;;;;;;5048789;28;20418;-48
2023/04/21 05:36:54;;;;;;;;;;;8.70;99.90;;;;;;5049579;28;19961;-47
2023/04/21 05:39:22;;;;;;;;;;;8.60;99.90;;;;;;5064801;28;19931;-47
2023/04/21 05:41:48;;;;;;;;;;;8.70;99.90;;;;;;5052358;28;19936;-45
2023/04/21 05:44:16;;;;;;;;;;;8.80;99.90;;;;;;5051264;28;19941;-48
2023/04/21 05:46:42;;;;;;;;;;;8.80;99.90;;;;;;5048938;28;20355;-44
2023/04/21 05:49:09;;;;;;;;;;;8.80;99.90;;;;;;5051944;28;19991;-45
2023/04/21 05:51:36;;;;;;;;;;;9.00;99.90;;;;;;5051450;28;19935;-50
2023/04/21 05:54:02;;;;;;;;;;;8.90;99.90;;;;;;5044544;28;20037;-46
2023/04/21 05:56:30;;;;;;;;;;;9.00;99.90;;;;;;5048064;28;20052;-41
2023/04/21 05:58:57;;;;;;;;;;;9.00;99.90;;;;;;5045025;28;20463;-44
2023/04/21 06:01:24;;;;;;;;;;;9.20;99.90;;;;;;5045139;28;19936;-45
2023/04/21 06:03:50;;;;;;;;;;;9.20;99.90;;;;;;5049998;28;20343;-44
2023/04/21 06:06:17;;;;;;;;;;;9.30;99.90;;;;;;5043113;28;20022;-44
2023/04/21 06:08:43;;;;;;;;;;;9.30;99.90;;;;;;5043085;28;19934;-47
2023/04/21 06:11:10;;;;;;;;;;;9.40;99.90;;;;;;5051516;28;19984;-46
2023/04/21 06:13:38;;;;;;;;;;;9.40;99.90;;;;;;5050816;28;19920;-43
2023/04/21 06:16:05;;;;;;;;;;;9.40;99.90;;;;;;5064824;28;19991;-45
2023/04/21 06:18:32;;;;;;;;;;;9.50;99.90;;;;;;5049724;28;19961;-46
2023/04/21 06:20:58;;;;;;;;;;;9.60;99.90;;;;;;5049532;28;20018;-47
2023/04/21 06:23:25;;;;;;;;;;;9.60;99.90;;;;;;5050517;28;20014;-43
2023/04/21 06:26:03;;;;;;;;;;;9.70;99.90;;;;;;5048971;28;20064;-47
2023/04/21 06:28:30;;;;;;;;;;;9.90;99.90;;;;;;5045455;28;19986;-39
2023/04/21 06:30:58;;;;;;;;;;;10.00;99.90;;;;;;5048363;28;19931;-45
2023/04/21 06:33:25;;;;;;;;;;;10.00;99.90;;;;;;5060493;28;20030;-47
2023/04/21 06:35:52;;;;;;;;;;;10.10;99.90;;;;;;5051910;28;19959;-46
2023/04/21 06:38:18;;;;;;;;;;;10.20;99.90;;;;;;5047613;28;19936;-44
2023/04/21 06:40:45;;;;;;;;;;;10.30;99.90;;;;;;5046306;28;20422;-43
2023/04/21 06:43:12;;;;;;;;;;;10.40;99.90;;;;;;5050005;28;19999;-46
2023/04/21 06:45:38;;;;;;;;;;;10.40;99.90;;;;;;5057471;28;19951;-41
2023/04/21 06:48:07;;;;;;;;;;;10.60;99.90;;;;;;5050614;28;19966;-45
2023/04/21 06:50:33;;;;;;;;;;;10.70;99.90;;;;;;5048470;28;19990;-42
2023/04/21 06:53:00;;;;;;;;;;;10.70;99.90;;;;;;5046544;28;19941;-44
2023/04/21 06:55:27;;;;;;;;;;;10.80;99.90;;;;;;5048901;28;20495;-47
2023/04/21 06:57:53;;;;;;;;;;;10.80;99.90;;;;;;5045895;28;19920;-40
2023/04/21 07:00:21;;;;;;;;;;;10.90;99.90;;;;;;5046106;28;20021;-44
2023/04/21 07:02:47;;;;;;;;;;;10.90;99.90;;;;;;5061374;28;19931;-47
2023/04/21 07:05:16;;;;;;;;;;;10.90;99.90;;;;;;5047292;28;20482;-43
2023/04/21 07:07:42;;;;;;;;;;;11.00;99.90;;;;;;5052580;28;19938;-44
2023/04/21 07:10:09;;;;;;;;;;;11.00;99.90;;;;;;5040211;28;19976;-42
2023/04/21 07:12:36;;;;;;;;;;;11.10;99.90;;;;;;5051513;28;20021;-45
2023/04/21 07:15:03;;;;;;;;;;;11.10;99.90;;;;;;5042854;28;20378;-46
2023/04/21 07:17:30;;;;;;;;;;;11.20;99.90;;;;;;5045954;28;19957;-42
2023/04/21 07:19:56;;;;;;;;;;;11.30;99.90;;;;;;5052089;28;19939;-45
2023/04/21 07:22:24;;;;;;;;;;;11.50;99.90;;;;;;5047429;28;20250;-44
2023/04/21 07:24:51;;;;;;;;;;;11.50;99.90;;;;;;5050449;28;19994;-46
2023/04/21 07:27:18;;;;;;;;;;;11.60;99.90;;;;;;5049197;28;19951;-44
2023/04/21 07:29:45;;;;;;;;;;;11.60;99.90;;;;;;5044094;28;20007;-43
2023/04/21 07:32:12;;;;;;;;;;;11.60;99.90;;;;;;5051501;28;20389;-42
2023/04/21 07:34:38;;;;;;;;;;;11.60;99.90;;;;;;5053917;28;19959;-45
2023/04/21 07:37:05;;;;;;;;;;;11.70;99.90;;;;;;5051025;28;20250;-46
2023/04/21 07:39:33;;;;;;;;;;;11.80;99.90;;;;;;5049639;28;20365;-43
2023/04/21 07:42:00;;;;;;;;;;;11.80;99.90;;;;;;5046505;28;20648;-45
2023/04/21 07:44:28;;;;;;;;;;;12.00;99.90;;;;;;5047763;28;19984;-43
2023/04/21 07:46:54;;;;;;;;;;;12.00;99.90;;;;;;5046680;28;19937;-45
2023/04/21 07:49:21;;;;;;;;;;;12.10;99.90;;;;;;5052099;28;20019;-44
2023/04/21 07:51:48;;;;;;;;;;;12.20;99.90;;;;;;5051180;28;20460;-46
2023/04/21 07:54:14;;;;;;;;;;;12.30;99.90;;;;;;5047138;28;20381;-45
2023/04/21 07:56:42;;;;;;;;;;;12.30;99.90;;;;;;5040924;28;19949;-46
2023/04/21 07:59:09;;;;;;;;;;;12.40;99.90;;;;;;5045311;28;19978;-43
2023/04/21 08:01:35;;;;;;;;;;;12.50;99.90;;;;;;5055377;28;20030;-41
2023/04/21 08:04:02;;;;;;;;;;;12.50;99.90;;;;;;5056870;28;20408;-46
2023/04/21 08:06:29;;;;;;;;;;;12.70;99.90;;;;;;5049147;28;19935;-47
2023/04/21 08:08:55;;;;;;;;;;;12.70;99.90;;;;;;5054888;28;20274;-47
2023/04/21 08:11:22;;;;;;;;;;;12.80;99.90;;;;;;5057138;28;19989;-43
2023/04/21 08:13:51;;;;;;;;;;;12.90;99.90;;;;;;5050383;28;19934;-42
2023/04/21 08:16:17;;;;;;;;;;;12.90;99.90;;;;;;5052292;28;20007;-41
2023/04/21 08:18:44;;;;;;;;;;;13.00;99.90;;;;;;5056334;28;20026;-47
2023/04/21 08:21:11;;;;;;;;;;;13.10;99.90;;;;;;5054213;28;19931;-42
2023/04/21 08:23:37;;;;;;;;;;;13.10;99.90;;;;;;5062587;28;19976;-46
2023/04/21 08:26:04;;;;;;;;;;;13.20;99.90;;;;;;5066440;28;19934;-44
2023/04/21 08:28:31;;;;;;;;;;;13.20;99.90;;;;;;5049768;28;19937;-42
2023/04/21 08:30:59;;;;;;;;;;;13.30;99.90;;;;;;5044892;28;19931;-45
2023/04/21 08:33:25;;;;;;;;;;;13.40;99.90;;;;;;5051582;28;20031;-44
2023/04/21 08:35:52;;;;;;;;;;;13.50;99.90;;;;;;5049927;28;20034;-45
2023/04/21 08:38:19;;;;;;;;;;;13.60;99.90;;;;;;5051661;28;19981;-44
2023/04/21 08:40:46;;;;;;;;;;;13.70;99.90;;;;;;5067674;28;19966;-42
2023/04/21 08:43:13;;;;;;;;;;;13.80;99.90;;;;;;5066974;28;20292;-44
2023/04/21 08:45:40;;;;;;;;;;;13.90;99.90;;;;;;5053836;28;19934;-44
2023/04/21 08:48:08;;;;;;;;;;;14.00;99.90;;;;;;5062645;28;19940;-41
2023/04/21 08:50:35;;;;;;;;;;;14.10;99.90;;;;;;5063315;28;20409;-48
2023/04/21 08:53:01;;;;;;;;;;;14.20;99.90;;;;;;5052724;28;20015;-46
2023/04/21 08:55:29;;;;;;;;;;;14.30;99.90;;;;;;5052323;28;19982;-44
2023/04/21 08:57:55;;;;;;;;;;;14.40;99.90;;;;;;5053572;28;19948;-45
2023/04/21 09:00:22;;;;;;;;;;;14.50;99.90;;;;;;5056035;28;19945;-43
2023/04/21 09:02:55;;;;;;;;;;;14.50;99.90;;;;;;5056164;28;19982;-42
2023/04/21 09:05:24;;;;;;;;;;;14.60;99.90;;;;;;5052082;28;19988;-43
2023/04/21 09:07:51;;;;;;;;;;;14.70;99.90;;;;;;5053087;28;20017;-43
2023/04/21 09:10:22;;;;;;;;;;;14.80;99.90;;;;;;5057464;28;19984;-40
2023/04/21 09:12:50;;;;;;;;;;;14.90;99.90;;;;;;5055019;28;19936;-45
2023/04/21 09:15:17;;;;;;;;;;;15.00;99.90;;;;;;5061447;28;19979;-45
2023/04/21 09:17:44;;;;;;;;;;;15.10;99.90;;;;;;5050982;28;20067;-46
2023/04/21 09:20:15;;;;;;;;;;;15.20;99.90;;;;;;5066438;28;19941;-42
2023/04/21 09:22:43;;;;;;;;;;;15.30;99.90;;;;;;5059318;28;19934;-41
2023/04/21 09:25:10;;;;;;;;;;;15.40;99.90;;;;;;5052303;28;20025;-42
2023/04/21 09:27:36;;;;;;;;;;;15.60;99.90;;;;;;5051233;28;19995;-43
2023/04/21 09:30:04;;;;;;;;;;;15.70;99.90;;;;;;5053472;28;19931;-41
2023/04/21 09:32:35;;;;;;;;;;;15.80;99.90;;;;;;5066668;28;19961;-44
2023/04/21 09:35:02;;;;;;;;;;;15.80;99.90;;;;;;5065231;28;20031;-42
2023/04/21 09:37:31;;;;;;;;;;;15.90;99.90;;;;;;5062533;28;20095;-44
2023/04/21 09:40:00;;;;;;;;;;;15.90;99.90;;;;;;5057595;28;19982;-47
2023/04/21 09:42:28;;;;;;;;;;;16.10;99.90;;;;;;5059586;28;19939;-44
2023/04/21 09:44:55;;;;;;;;;;;16.10;99.90;;;;;;5054263;28;20024;-43
2023/04/21 09:47:21;;;;;;;;;;;16.20;99.90;;;;;;5053565;28;19960;-41
2023/04/21 09:49:48;;;;;;;;;;;16.30;99.90;;;;;;5055661;28;19956;-41
2023/04/21 09:52:15;;;;;;;;;;;16.40;99.90;;;;;;5063625;28;20469;-44
2023/04/21 09:54:43;;;;;;;;;;;16.40;99.90;;;;;;5059040;28;19971;-43
2023/04/21 09:57:11;;;;;;;;;;;16.60;99.90;;;;;;5052593;28;20000;-43
2023/04/21 09:59:57;;;;;;;;;;;16.70;99.90;;;;;;5051999;28;19995;-43
2023/04/21 10:02:24;;;;;;;;;;;16.70;99.90;;;;;;5054431;28;19934;-41
2023/04/21 10:04:51;;;;;;;;;;;16.90;99.90;;;;;;5052732;28;19970;-42
2023/04/21 10:07:18;;;;;;;;;;;17.10;99.90;;;;;;5050142;28;20021;-44
2023/04/21 10:09:45;;;;;;;;;;;17.40;99.90;;;;;;5053528;28;19968;-43
2023/04/21 10:12:13;;;;;;;;;;;17.60;99.90;;;;;;5062238;28;19938;-43
2023/04/21 10:14:40;;;;;;;;;;;17.80;99.90;;;;;;5056267;28;19987;-45
2023/04/21 10:17:07;;;;;;;;;;;17.90;99.90;;;;;;5058943;28;19971;-41
2023/04/21 10:19:38;;;;;;;;;;;18.10;99.90;;;;;;5066806;28;19939;-43
2023/04/21 10:22:06;;;;;;;;;;;18.20;99.90;;;;;;5067548;28;19972;-42
2023/04/21 10:24:32;;;;;;;;;;;18.30;99.90;;;;;;5065350;28;19940;-42
2023/04/21 10:27:01;;;;;;;;;;;18.30;99.90;;;;;;5050223;28;19933;-43
2023/04/21 10:29:33;;;;;;;;;;;18.30;99.90;;;;;;5049269;28;19942;-43
2023/04/21 10:32:00;;;;;;;;;;;18.20;99.90;;;;;;5048711;28;19982;-41
2023/04/21 10:34:29;;;;;;;;;;;18.10;99.90;;;;;;5055372;28;20304;-41
2023/04/21 10:37:14;;;;;;;;;;;18.00;99.70;;;;;;5048524;28;19968;-46
2023/04/21 10:39:44;;;;;;;;;;;18.00;99.90;;;;;;5056071;28;19940;-41
2023/04/21 10:42:23;;;;;;;;;;;18.00;99.90;;;;;;5055323;28;20371;-46
2023/04/21 10:45:01;;;;;;;;;;;18.00;99.90;;;;;;5036784;28;20460;-44
2023/04/21 10:47:28;;;;;;;;;;;18.00;99.80;;;;;;5055376;28;19956;-43
2023/04/21 10:49:55;;;;;;;;;;;18.00;99.90;;;;;;5049232;28;19937;-45
2023/04/21 10:52:22;;;;;;;;;;;18.00;99.90;;;;;;5048458;28;20381;-47
2023/04/21 10:55:05;;;;;;;;;;;18.00;99.90;;;;;;5056480;28;19941;-43
2023/04/21 10:57:32;;;;;;;;;;;18.00;99.90;;;;;;5051230;28;20407;-42
2023/04/21 11:00:00;;;;;;;;;;;18.10;99.90;;;;;;5060149;28;20326;-45
2023/04/21 11:02:26;;;;;;;;;;;18.00;99.30;;;;;;5047398;28;20040;-42
2023/04/21 11:04:53;;;;;;;;;;;18.00;98.90;;;;;;5040454;28;19935;-45
2023/04/21 11:07:21;;;;;;;;;;;18.00;99.60;;;;;;5051364;28;19931;-42
2023/04/21 11:09:49;;;;;;;;;;;18.00;99.90;;;;;;5040726;28;19942;-41
2023/04/21 11:12:16;;;;;;;;;;;18.10;98.90;;;;;;5049318;28;20027;-43
2023/04/21 11:14:44;;;;;;;;;;;18.10;99.90;;;;;;5046762;28;19938;-42
2023/04/21 11:17:12;;;;;;;;;;;18.10;99.90;;;;;;5053423;28;19988;-41
2023/04/21 11:19:39;;;;;;;;;;;18.10;99.30;;;;;;5062034;28;19934;-41
2023/04/21 11:22:06;;;;;;;;;;;18.10;99.00;;;;;;5054278;28;19931;-42
2023/04/21 11:24:32;;;;;;;;;;;18.20;99.50;;;;;;5060866;28;20343;-42
2023/04/21 11:27:00;;;;;;;;;;;18.20;99.10;;;;;;5062674;28;19930;-44
2023/04/21 11:29:28;;;;;;;;;;;18.40;99.30;;;;;;5051487;28;19938;-41
2023/04/21 11:31:54;;;;;;;;;;;18.60;98.40;;;;;;5070787;28;19936;-41
2023/04/21 11:34:23;;;;;;;;;;;18.60;97.40;;;;;;5050176;28;19988;-43
2023/04/21 11:36:50;;;;;;;;;;;18.70;96.60;;;;;;5062462;28;19949;-41
2023/04/21 11:39:18;;;;;;;;;;;18.60;96.50;;;;;;5041530;28;20036;-42
2023/04/21 11:41:46;;;;;;;;;;;18.60;97.30;;;;;;5049965;28;19939;-43
2023/04/21 11:44:12;;;;;;;;;;;18.50;96.60;;;;;;5043841;28;20447;-43
2023/04/21 11:46:45;;;;;;;;;;;18.50;95.50;;;;;;5047595;28;19995;-42
2023/04/21 11:49:12;;;;;;;;;;;18.50;96.20;;;;;;5046427;28;19935;-44
2023/04/21 11:51:40;;;;;;;;;;;18.70;94.70;;;;;;5051147;28;19937;-43
2023/04/21 11:54:07;;;;;;;;;;;18.90;95.40;;;;;;5062778;28;19984;-43
2023/04/21 11:56:37;;;;;;;;;;;19.30;94.20;;;;;;5058427;28;19939;-40
2023/04/21 11:59:06;;;;;;;;;;;19.50;95.00;;;;;;5047322;28;19944;-42
2023/04/21 12:01:33;;;;;;;;;;;19.80;93.60;;;;;;5034035;28;19963;-42
2023/04/21 12:03:59;;;;;;;;;;;19.90;91.60;;;;;;5051752;28;20536;-42
2023/04/21 12:06:27;;;;;;;;;;;19.90;92.00;;;;;;5052002;28;19978;-41
2023/04/21 12:08:59;;;;;;;;;;;20.10;92.20;;;;;;5049892;28;19936;-42
2023/04/21 12:11:27;;;;;;;;;;;20.40;91.90;;;;;;5048822;28;19933;-41
2023/04/21 12:13:53;;;;;;;;;;;20.50;88.70;;;;;;5050771;28;20347;-42
2023/04/21 12:16:20;;;;;;;;;;;20.60;89.80;;;;;;5055449;28;19939;-39
2023/04/21 12:18:48;;;;;;;;;;;20.50;89.90;;;;;;5053968;28;20410;-40
2023/04/21 12:21:15;;;;;;;;;;;20.50;88.00;;;;;;5054896;28;19940;-40
2023/04/21 12:23:43;;;;;;;;;;;20.40;89.00;;;;;;5056176;28;20102;-40
2023/04/21 12:26:11;;;;;;;;;;;20.40;86.00;;;;;;5057974;28;19939;-40
2023/04/21 12:28:38;;;;;;;;;;;20.30;85.90;;;;;;5057726;28;19933;-41
2023/04/21 12:31:05;;;;;;;;;;;20.20;83.20;;;;;;5059303;28;20000;-40
2023/04/21 12:33:31;;;;;;;;;;;20.10;86.10;;;;;;5059057;28;19987;-41
2023/04/21 12:35:58;;;;;;;;;;;20.00;85.50;;;;;;5053512;28;20361;-43
2023/04/21 12:38:25;;;;;;;;;;;20.00;87.50;;;;;;5068997;28;20004;-42
2023/04/21 12:40:52;;;;;;;;;;;20.00;90.00;;;;;;5055681;28;19937;-42
2023/04/21 12:43:20;;;;;;;;;;;20.00;89.20;;;;;;5062743;28;19985;-42
2023/04/21 12:45:47;;;;;;;;;;;19.90;88.10;;;;;;5071770;28;19935;-45
2023/04/21 12:48:13;;;;;;;;;;;19.90;87.80;;;;;;5062493;28;20070;-42
2023/04/21 12:50:40;;;;;;;;;;;19.80;87.90;;;;;;5057386;28;19982;-42
2023/04/21 12:53:07;;;;;;;;;;;19.70;87.10;;;;;;5065879;28;19934;-41
2023/04/21 12:55:34;;;;;;;;;;;19.60;86.00;;;;;;5062515;28;20391;-41
2023/04/21 12:58:01;;;;;;;;;;;19.60;85.50;;;;;;5044291;28;20012;-41
2023/04/21 13:00:29;;;;;;;;;;;19.70;86.00;;;;;;5053622;28;19933;-42
2023/04/21 13:02:56;;;;;;;;;;;19.80;86.60;;;;;;5056050;28;19947;-42
2023/04/21 13:05:22;;;;;;;;;;;19.80;85.20;;;;;;5062392;28;19948;-40
2023/04/21 13:07:49;;;;;;;;;;;19.80;86.50;;;;;;5052122;28;19935;-40
2023/04/21 13:10:16;;;;;;;;;;;19.80;82.40;;;;;;5054074;28;19946;-41
2023/04/21 13:12:42;;;;;;;;;;;19.80;80.60;;;;;;5053713;28;19937;-41
2023/04/21 13:15:09;;;;;;;;;;;19.90;81.10;;;;;;5052946;28;20381;-41
2023/04/21 13:17:37;;;;;;;;;;;19.90;80.80;;;;;;5052160;28;20022;-43
2023/04/21 13:20:05;;;;;;;;;;;19.90;81.40;;;;;;5052472;28;19938;-40
2023/04/21 13:22:32;;;;;;;;;;;20.00;81.50;;;;;;5051467;28;19973;-42
2023/04/21 13:24:59;;;;;;;;;;;19.90;77.50;;;;;;5053853;28;19978;-40
2023/04/21 13:27:26;;;;;;;;;;;20.00;81.60;;;;;;5053676;28;19993;-40
2023/04/21 13:29:53;;;;;;;;;;;20.00;77.30;;;;;;5052367;28;20031;-40
2023/04/21 13:32:20;;;;;;;;;;;20.00;81.90;;;;;;5053759;28;20093;-42
2023/04/21 13:34:48;;;;;;;;;;;20.10;78.40;;;;;;5052559;28;19945;-40
2023/04/21 13:37:15;;;;;;;;;;;20.10;77.60;;;;;;5051551;28;19937;-43
2023/04/21 13:39:42;;;;;;;;;;;20.00;79.00;;;;;;5033674;28;19939;-42
2023/04/21 13:42:09;;;;;;;;;;;20.00;77.20;;;;;;5055211;28;19993;-41
2023/04/21 13:44:35;;;;;;;;;;;20.00;78.80;;;;;;5054658;28;19958;-41
2023/04/21 13:47:02;;;;;;;;;;;20.00;77.50;;;;;;5047036;28;20400;-42
2023/04/21 13:49:29;;;;;;;;;;;20.00;76.60;;;;;;5049891;28;19938;-41
2023/04/21 13:51:57;;;;;;;;;;;20.10;75.10;;;;;;5055433;28;19980;-42
2023/04/21 13:54:23;;;;;;;;;;;20.10;73.20;;;;;;5049694;28;19977;-40
2023/04/21 13:56:50;;;;;;;;;;;20.10;73.20;;;;;;5051033;28;20032;-43
2023/04/21 13:59:17;;;;;;;;;;;20.10;72.10;;;;;;5052147;28;19962;-41
2023/04/21 14:01:43;;;;;;;;;;;20.00;71.80;;;;;;5050838;28;20459;-43
2023/04/21 14:04:10;;;;;;;;;;;20.00;71.90;;;;;;5052613;28;19963;-41
2023/04/21 14:06:37;;;;;;;;;;;20.10;72.80;;;;;;5052252;28;20397;-43
2023/04/21 14:09:05;;;;;;;;;;;20.10;71.00;;;;;;5057183;28;19986;-42
2023/04/21 14:11:31;;;;;;;;;;;20.20;70.40;;;;;;5053372;28;20051;-40
2023/04/21 14:13:58;;;;;;;;;;;20.20;72.90;;;;;;5054172;28;20436;-42
2023/04/21 14:16:25;;;;;;;;;;;20.20;71.10;;;;;;5052693;28;20433;-41
2023/04/21 14:18:51;;;;;;;;;;;20.20;68.40;;;;;;5052835;28;20382;-41
2023/04/21 14:21:18;;;;;;;;;;;20.20;69.60;;;;;;5055661;28;19939;-43
2023/04/21 14:23:45;;;;;;;;;;;20.20;71.30;;;;;;5053548;28;20008;-43